createdAt,value
2023-02-14T00:01:48.820Z,98985.97
2023-02-14T00:04:19.704Z,98998.94
2023-02-14T00:06:50.913Z,98985.13
2023-02-14T00:09:20.694Z,98984.25
2023-02-14T00:11:48.760Z,98976.47
2023-02-14T00:14:49.968Z,98975.59
2023-02-14T00:17:18.366Z,98985.97
2023-02-14T00:19:46.624Z,98979.94
2023-02-14T00:22:16.225Z,98983.38
2023-02-14T00:24:44.229Z,98980.78
2023-02-14T00:27:12.346Z,98984.22
2023-02-14T00:29:40.396Z,98985.13
2023-02-14T00:32:08.504Z,98976.44
2023-02-14T00:34:37.721Z,98978.13
2023-02-14T00:37:06.341Z,98976.44
2023-02-14T00:39:35.892Z,98981.59
2023-02-14T00:42:07.365Z,98985.91
2023-02-14T00:44:35.580Z,98989.41
2023-02-14T00:47:03.479Z,98978.19
2023-02-14T00:49:31.604Z,98990.31
2023-02-14T00:52:00.583Z,98986.00
2023-02-14T00:54:29.265Z,98984.28
2023-02-14T00:57:01.324Z,98979.06
2023-02-14T00:59:30.252Z,98991.19
2023-02-14T01:01:58.251Z,98997.22
2023-02-14T01:04:26.333Z,98990.31
2023-02-14T01:06:54.739Z,98979.06
2023-02-14T01:09:22.947Z,98974.75
2023-02-14T01:11:51.348Z,98975.59
2023-02-14T01:14:20.687Z,98985.09
2023-02-14T01:16:50.786Z,98969.56
2023-02-14T01:19:19.472Z,98970.41
2023-02-14T01:21:47.414Z,98966.94
2023-02-14T01:24:16.260Z,98965.25
2023-02-14T01:26:44.301Z,98966.09
2023-02-14T01:29:12.548Z,98959.16
2023-02-14T01:31:42.416Z,98961.78
2023-02-14T01:34:10.635Z,98958.28
2023-02-14T01:36:40.378Z,98958.28
2023-02-14T01:39:11.610Z,98953.94
2023-02-14T01:41:41.592Z,98948.78
2023-02-14T01:44:48.790Z,98944.44
2023-02-14T01:47:18.850Z,98943.59
2023-02-14T01:49:52.642Z,98937.56
2023-02-14T01:52:24.843Z,98940.16
2023-02-14T01:54:56.981Z,98936.66
2023-02-14T01:57:29.739Z,98928.06
2023-02-14T02:00:21.427Z,98935.81
2023-02-14T02:02:50.991Z,98934.09
2023-02-14T02:05:23.815Z,98930.63
2023-02-14T02:07:52.781Z,98931.50
2023-02-14T02:10:20.926Z,98934.09
2023-02-14T02:12:53.765Z,98928.03
2023-02-14T02:15:25.158Z,98929.78
2023-02-14T02:18:06.501Z,98939.25
2023-02-14T02:21:02.967Z,98932.31
2023-02-14T02:24:00.442Z,98938.41
2023-02-14T02:27:13.405Z,98933.13
2023-02-14T02:30:11.958Z,98933.13
2023-02-14T02:33:10.693Z,98937.44
2023-02-14T02:35:53.028Z,98928.91
2023-02-14T02:38:38.851Z,98937.56
2023-02-14T02:41:19.400Z,98936.66
2023-02-14T02:43:57.188Z,98934.97
2023-02-14T02:46:50.273Z,98935.78
2023-02-14T02:49:48.176Z,98940.16
2023-02-14T02:52:41.770Z,98930.63
2023-02-14T02:55:14.965Z,98929.81
2023-02-14T02:57:43.547Z,98925.47
2023-02-14T03:00:16.217Z,98930.66
2023-02-14T03:03:06.250Z,98932.38
2023-02-14T03:05:36.406Z,98931.50
2023-02-14T03:08:06.497Z,98930.66
2023-02-14T03:10:39.141Z,98922.84
2023-02-14T03:13:26.209Z,98929.78
2023-02-14T03:16:10.283Z,98935.84
2023-02-14T03:19:12.276Z,98923.66
2023-02-14T03:21:48.239Z,98925.38
2023-02-14T03:24:26.900Z,98926.28
2023-02-14T03:27:03.721Z,98919.38
2023-02-14T03:29:45.014Z,98924.53
2023-02-14T03:32:19.410Z,98927.22
2023-02-14T03:34:56.359Z,98929.72
2023-02-14T03:37:30.487Z,98928.94
2023-02-14T03:40:10.087Z,98918.53
2023-02-14T03:42:44.061Z,98921.94
2023-02-14T03:45:17.693Z,98925.41
2023-02-14T03:47:47.479Z,98927.19
2023-02-14T03:50:18.601Z,98924.56
2023-02-14T03:52:50.278Z,98928.06
2023-02-14T03:55:25.828Z,98922.84
2023-02-14T03:57:59.821Z,98918.53
2023-02-14T04:00:31.080Z,98922.00
2023-02-14T04:03:04.257Z,98921.97
2023-02-14T04:05:32.252Z,98924.63
2023-02-14T04:08:00.507Z,98917.66
2023-02-14T04:10:30.686Z,98922.00
2023-02-14T04:12:58.661Z,98922.88
2023-02-14T04:15:26.710Z,98921.16
2023-02-14T04:18:12.485Z,98916.78
2023-02-14T04:20:40.499Z,98914.16
2023-02-14T04:23:08.608Z,98922.81
2023-02-14T04:25:40.054Z,98908.91
2023-02-14T04:28:08.037Z,98910.72
2023-02-14T04:30:36.167Z,98913.38
2023-02-14T04:33:04.612Z,98905.56
2023-02-14T04:35:33.113Z,98898.66
2023-02-14T04:38:02.764Z,98897.78
2023-02-14T04:40:31.707Z,98898.66
2023-02-14T04:43:02.024Z,98902.06
2023-02-14T04:45:30.093Z,98898.63
2023-02-14T04:47:58.024Z,98905.50
2023-02-14T04:50:26.623Z,98893.47
2023-02-14T04:52:55.001Z,98889.97
2023-02-14T04:55:23.033Z,98893.50
2023-02-14T04:57:51.255Z,98883.09
2023-02-14T05:00:22.387Z,98900.38
2023-02-14T05:02:50.437Z,98896.06
2023-02-14T05:05:18.638Z,98902.09
2023-02-14T05:07:47.913Z,98905.53
2023-02-14T05:10:16.301Z,98897.69
2023-02-14T05:12:44.370Z,98901.22
2023-02-14T05:15:12.812Z,98898.56
2023-02-14T05:17:42.375Z,98897.66
2023-02-14T05:20:11.165Z,98889.91
2023-02-14T05:22:39.298Z,98895.00
2023-02-14T05:25:08.047Z,98889.94
2023-02-14T05:27:36.473Z,98884.78
2023-02-14T05:30:05.428Z,98896.06
2023-02-14T05:32:33.691Z,98886.53
2023-02-14T05:35:03.443Z,98891.72
2023-02-14T05:37:31.419Z,98898.59
2023-02-14T05:39:59.587Z,98900.38
2023-02-14T05:42:27.797Z,98896.06
2023-02-14T05:44:55.695Z,98902.13
2023-02-14T05:47:23.880Z,98898.66
2023-02-14T05:49:52.025Z,98905.56
2023-02-14T05:52:22.005Z,98892.59
2023-02-14T05:54:49.940Z,98895.19
2023-02-14T05:57:18.478Z,98896.06
2023-02-14T05:59:46.416Z,98906.44
2023-02-14T06:02:16.003Z,98901.97
2023-02-14T06:04:44.525Z,98907.25
2023-02-14T06:07:12.666Z,98913.28
2023-02-14T06:09:42.196Z,98910.66
2023-02-14T06:12:10.332Z,98913.28
2023-02-14T06:14:39.211Z,98915.00
2023-02-14T06:17:07.504Z,98911.56
2023-02-14T06:19:35.610Z,98913.25
2023-02-14T06:22:03.823Z,98910.78
2023-02-14T06:24:32.239Z,98910.72
2023-02-14T06:27:02.283Z,98912.50
2023-02-14T06:29:30.595Z,98914.22
2023-02-14T06:32:05.767Z,98909.03
2023-02-14T06:34:34.378Z,98921.16
2023-02-14T06:37:02.446Z,98914.22
2023-02-14T06:39:30.582Z,98915.97
2023-02-14T06:41:59.709Z,98920.22
2023-02-14T06:44:29.230Z,98920.28
2023-02-14T06:46:57.383Z,98921.97
2023-02-14T06:49:25.388Z,98925.41
2023-02-14T06:51:53.721Z,98923.66
2023-02-14T06:54:22.170Z,98924.47
2023-02-14T06:56:50.093Z,98922.84
2023-02-14T06:59:18.602Z,98924.56
2023-02-14T07:01:48.668Z,98922.88
2023-02-14T07:04:17.815Z,98926.31
2023-02-14T07:06:46.484Z,98927.19
2023-02-14T07:09:16.945Z,98930.63
2023-02-14T07:11:45.152Z,98922.00
2023-02-14T07:14:14.069Z,98919.34
2023-02-14T07:16:42.868Z,98922.69
2023-02-14T07:19:13.042Z,98912.34
2023-02-14T07:21:41.300Z,98913.94
2023-02-14T07:24:09.556Z,98921.66
2023-02-14T07:26:37.641Z,98919.25
2023-02-14T07:29:05.600Z,98917.47
2023-02-14T07:31:34.070Z,98919.03
2023-02-14T07:34:02.096Z,98926.09
2023-02-14T07:36:31.827Z,98920.03
2023-02-14T07:38:59.873Z,98924.38
2023-02-14T07:41:27.847Z,98920.03
2023-02-14T07:43:56.122Z,98918.31
2023-02-14T07:46:24.341Z,98917.56
2023-02-14T07:48:53.008Z,98914.22
2023-02-14T07:51:21.077Z,98915.88
2023-02-14T07:53:51.358Z,98920.13
2023-02-14T07:56:19.620Z,98918.38
2023-02-14T07:58:49.760Z,98919.97
2023-02-14T08:01:18.161Z,98919.03
2023-02-14T08:03:49.450Z,98919.06
2023-02-14T08:06:18.322Z,98912.22
2023-02-14T08:08:47.699Z,98919.22
2023-02-14T08:11:37.501Z,98921.56
2023-02-14T08:14:06.301Z,98920.59
2023-02-14T08:16:34.851Z,98921.91
2023-02-14T08:19:03.635Z,98921.94
2023-02-14T08:21:31.826Z,98919.31
2023-02-14T08:24:00.031Z,98921.72
2023-02-14T08:26:30.152Z,98917.50
2023-02-14T08:28:58.480Z,98918.22
2023-02-14T08:31:36.676Z,98912.94
2023-02-14T08:34:05.367Z,98913.00
2023-02-14T08:36:34.340Z,98918.22
2023-02-14T08:39:03.612Z,98904.25
2023-02-14T08:41:34.442Z,98920.81
2023-02-14T08:44:02.730Z,98921.59
2023-02-14T08:46:30.716Z,98925.13
2023-02-14T08:48:59.030Z,98924.00
2023-02-14T08:51:27.074Z,98932.72
2023-02-14T08:53:56.151Z,98930.78
2023-02-14T08:56:24.995Z,98924.09
2023-02-14T08:58:55.593Z,98926.28
2023-02-14T09:01:24.157Z,98938.22
2023-02-14T09:03:52.815Z,98937.34
2023-02-14T09:06:21.152Z,98937.13
2023-02-14T09:08:49.339Z,98946.28
2023-02-14T09:11:22.036Z,98939.88
2023-02-14T09:13:51.468Z,98947.38
2023-02-14T09:16:25.322Z,98950.53
2023-02-14T09:18:56.864Z,98952.25
2023-02-14T09:21:27.436Z,98944.97
2023-02-14T09:23:56.054Z,98945.81
2023-02-14T09:26:24.084Z,98950.25
2023-02-14T09:28:52.317Z,98942.75
2023-02-14T09:31:24.089Z,98946.13
2023-02-14T09:33:53.205Z,98939.19
2023-02-14T09:36:21.682Z,98937.16
2023-02-14T09:38:49.682Z,98935.63
2023-02-14T09:41:44.254Z,98935.78
2023-02-14T09:44:17.863Z,98943.53
2023-02-14T09:46:51.834Z,98938.81
2023-02-14T09:49:31.280Z,98936.00
2023-02-14T09:52:03.579Z,98941.31
2023-02-14T09:54:35.914Z,98945.72
2023-02-14T09:57:12.618Z,98946.06
2023-02-14T09:59:47.865Z,98940.66
2023-02-14T10:02:33.616Z,98946.84
2023-02-14T10:05:08.265Z,98957.41
2023-02-14T10:07:47.879Z,98956.53
2023-02-14T10:10:21.476Z,98949.59
2023-02-14T10:12:56.020Z,98948.22
2023-02-14T10:15:27.183Z,98953.03
2023-02-14T10:18:01.581Z,98954.88
2023-02-14T10:20:36.016Z,98945.97
2023-02-14T10:23:07.221Z,98938.66
2023-02-14T10:25:43.845Z,98944.75
2023-02-14T10:28:16.842Z,98939.03
2023-02-14T10:31:01.016Z,98932.66
2023-02-14T10:33:34.414Z,98933.91
2023-02-14T10:36:05.870Z,98936.97
2023-02-14T10:38:45.289Z,98935.19
2023-02-14T10:41:27.590Z,98939.88
2023-02-14T10:44:06.799Z,98938.97
2023-02-14T10:46:41.236Z,98935.47
2023-02-14T10:49:26.161Z,98926.75
2023-02-14T10:51:59.456Z,98927.66
2023-02-14T10:54:40.055Z,98939.78
2023-02-14T10:57:15.693Z,98928.13
2023-02-14T10:59:52.093Z,98936.22
2023-02-14T11:02:26.017Z,98924.25
2023-02-14T11:04:57.386Z,98920.94
2023-02-14T11:07:26.094Z,98923.94
2023-02-14T11:09:54.178Z,98916.84
2023-02-14T11:12:40.044Z,98913.03
2023-02-14T11:15:20.876Z,98914.81
2023-02-14T11:17:49.947Z,98916.19
2023-02-14T11:20:30.767Z,98916.50
2023-02-14T11:22:59.094Z,98914.44
2023-02-14T11:25:31.324Z,98915.81
2023-02-14T11:28:03.100Z,98916.03
2023-02-14T11:30:37.110Z,98903.97
2023-02-14T11:33:05.775Z,98904.91
2023-02-14T11:35:37.150Z,98903.00
2023-02-14T11:38:08.484Z,98903.09
2023-02-14T11:40:38.968Z,98901.75
2023-02-14T11:43:20.863Z,98901.81
2023-02-14T11:45:50.254Z,98906.88
2023-02-14T11:48:31.523Z,98908.59
2023-02-14T11:51:10.387Z,98911.47
2023-02-14T11:53:47.200Z,98903.56
2023-02-14T11:56:16.386Z,98900.66
2023-02-14T11:58:50.128Z,98901.13
2023-02-14T12:01:25.282Z,98899.69
2023-02-14T12:03:55.930Z,98890.56
2023-02-14T12:06:27.816Z,98885.19
2023-02-14T12:09:14.420Z,98872.53
2023-02-14T12:11:42.915Z,98876.78
2023-02-14T12:14:22.729Z,98882.28
2023-02-14T12:16:58.186Z,98885.78
2023-02-14T12:19:35.976Z,98880.31
2023-02-14T12:22:08.262Z,98881.13
2023-02-14T12:24:39.565Z,98870.84
2023-02-14T12:27:20.249Z,98857.56
2023-02-14T12:29:53.313Z,98863.38
2023-02-14T12:32:24.974Z,98857.56
2023-02-14T12:34:58.359Z,98861.28
2023-02-14T12:37:50.811Z,98854.59
2023-02-14T12:40:33.010Z,98858.63
2023-02-14T12:43:13.710Z,98847.25
2023-02-14T12:46:03.843Z,98854.09
2023-02-14T12:48:44.190Z,98849.72
2023-02-14T12:51:17.888Z,98845.28
2023-02-14T12:54:03.448Z,98847.16
2023-02-14T12:56:42.420Z,98850.47
2023-02-14T12:59:22.188Z,98837.09
2023-02-14T13:02:07.766Z,98832.56
2023-02-14T13:04:53.327Z,98836.47
2023-02-14T13:07:38.234Z,98829.38
2023-02-14T13:10:18.249Z,98826.63
2023-02-14T13:12:52.776Z,98810.69
2023-02-14T13:15:34.642Z,98825.97
2023-02-14T13:18:12.090Z,98818.03
2023-02-14T13:20:48.904Z,98813.22
2023-02-14T13:23:21.725Z,98819.22
2023-02-14T13:25:55.704Z,98814.78
2023-02-14T13:28:25.606Z,98813.38
2023-02-14T13:30:56.263Z,98818.38
2023-02-14T13:33:29.349Z,98816.69
2023-02-14T13:36:01.846Z,98812.09
2023-02-14T13:38:33.095Z,98808.38
2023-02-14T13:41:05.477Z,98801.91
2023-02-14T13:43:51.841Z,98795.19
2023-02-14T13:46:22.397Z,98812.34
2023-02-14T13:48:59.894Z,98808.91
2023-02-14T13:51:48.703Z,98803.97
2023-02-14T13:54:31.178Z,98810.94
2023-02-14T13:57:02.481Z,98812.81
2023-02-14T13:59:33.057Z,98805.56
2023-02-14T14:02:32.998Z,98790.81
2023-02-14T14:05:01.994Z,98798.69
2023-02-14T14:07:31.445Z,98789.50
2023-02-14T14:10:05.044Z,98799.53
2023-02-14T14:12:46.090Z,98803.06
2023-02-14T14:15:20.528Z,98808.34
2023-02-14T14:18:05.178Z,98804.22
2023-02-14T14:20:49.282Z,98794.66
2023-02-14T14:23:31.281Z,98788.75
2023-02-14T14:26:01.281Z,98790.47
2023-02-14T14:28:33.452Z,98786.34
2023-02-14T14:31:02.043Z,98786.09
2023-02-14T14:33:32.992Z,98771.09
2023-02-14T14:36:06.045Z,98772.38
2023-02-14T14:38:46.606Z,98767.72
2023-02-14T14:41:14.940Z,98767.44
2023-02-14T14:43:45.157Z,98781.09
2023-02-14T14:46:14.546Z,98780.44
2023-02-14T14:48:45.927Z,98768.53
2023-02-14T14:51:23.737Z,98771.72
2023-02-14T14:53:55.890Z,98771.00
2023-02-14T14:56:26.670Z,98766.44
2023-02-14T14:58:57.133Z,98772.53
2023-02-14T15:01:37.345Z,98763.97
2023-02-14T15:04:13.297Z,98763.47
2023-02-14T15:06:42.263Z,98766.50
2023-02-14T15:09:16.160Z,98757.63
2023-02-14T15:12:04.322Z,98750.91
2023-02-14T15:14:42.440Z,98752.97
2023-02-14T15:17:19.293Z,98758.16
2023-02-14T15:19:51.070Z,98754.72
2023-02-14T15:22:21.721Z,98750.19
2023-02-14T15:24:50.613Z,98755.03
2023-02-14T15:27:21.679Z,98751.31
2023-02-14T15:29:59.351Z,98754.00
2023-02-14T15:32:31.171Z,98743.44
2023-02-14T15:35:00.721Z,98744.66
2023-02-14T15:37:29.240Z,98746.41
2023-02-14T15:39:59.539Z,98742.91
2023-02-14T15:42:31.669Z,98747.31
2023-02-14T15:45:18.184Z,98738.59
2023-02-14T15:47:50.817Z,98751.69
2023-02-14T15:50:24.264Z,98751.75
2023-02-14T15:52:53.915Z,98741.06
2023-02-14T15:55:26.532Z,98734.19
2023-02-14T15:57:57.794Z,98736.00
2023-02-14T16:00:28.201Z,98736.06
2023-02-14T16:03:00.856Z,98742.19
2023-02-14T16:05:29.497Z,98740.44
2023-02-14T16:07:59.465Z,98747.38
2023-02-14T16:10:29.440Z,98751.75
2023-02-14T16:13:00.527Z,98738.81
2023-02-14T16:15:32.969Z,98735.34
2023-02-14T16:18:07.645Z,98737.91
2023-02-14T16:20:41.933Z,98741.34
2023-02-14T16:23:18.928Z,98743.13
2023-02-14T16:25:47.956Z,98734.47
2023-02-14T16:28:16.864Z,98737.94
2023-02-14T16:30:49.300Z,98734.44
2023-02-14T16:33:22.020Z,98735.31
2023-02-14T16:35:51.107Z,98735.34
2023-02-14T16:38:21.181Z,98731.91
2023-02-14T16:40:51.698Z,98738.78
2023-02-14T16:43:21.484Z,98734.50
2023-02-14T16:45:51.107Z,98733.59
2023-02-14T16:48:19.739Z,98732.63
2023-02-14T16:50:48.707Z,98734.31
2023-02-14T16:53:27.141Z,98735.94
2023-02-14T16:55:58.192Z,98736.78
2023-02-14T16:58:31.129Z,98730.66
2023-02-14T17:01:01.209Z,98734.88
2023-02-14T17:03:29.731Z,98734.06
2023-02-14T17:05:59.455Z,98731.56
2023-02-14T17:08:27.875Z,98730.69
2023-02-14T17:10:57.689Z,98724.84
2023-02-14T17:13:28.241Z,98729.03
2023-02-14T17:15:57.466Z,98725.41
2023-02-14T17:18:27.462Z,98720.13
2023-02-14T17:20:56.414Z,98716.66
2023-02-14T17:23:24.764Z,98715.91
2023-02-14T17:25:53.006Z,98717.44
2023-02-14T17:28:21.352Z,98725.16
2023-02-14T17:30:49.655Z,98725.38
2023-02-14T17:33:17.883Z,98728.78
2023-02-14T17:35:47.369Z,98720.19
2023-02-14T17:38:16.467Z,98719.19
2023-02-14T17:40:44.527Z,98720.78
2023-02-14T17:43:12.550Z,98719.22
2023-02-14T17:45:41.064Z,98720.72
2023-02-14T17:48:11.674Z,98716.63
2023-02-14T17:50:40.022Z,98714.38
2023-02-14T17:53:09.723Z,98712.88
2023-02-14T17:55:38.817Z,98710.31
2023-02-14T17:58:06.933Z,98715.31
2023-02-14T18:00:35.678Z,98716.53
2023-02-14T18:03:04.209Z,98707.00
2023-02-14T18:05:32.616Z,98713.59
2023-02-14T18:08:00.727Z,98706.78
2023-02-14T18:10:30.232Z,98706.72
2023-02-14T18:12:58.718Z,98701.13
2023-02-14T18:15:27.769Z,98702.06
2023-02-14T18:17:56.166Z,98694.03
2023-02-14T18:20:24.548Z,98687.94
2023-02-14T18:22:52.501Z,98692.34
2023-02-14T18:25:20.856Z,98684.69
2023-02-14T18:27:50.489Z,98687.47
2023-02-14T18:30:19.372Z,98678.81
2023-02-14T18:32:47.971Z,98684.50
2023-02-14T18:35:16.534Z,98684.56
2023-02-14T18:37:44.730Z,98683.72
2023-02-14T18:40:20.265Z,98682.75
2023-02-14T18:42:48.502Z,98691.38
2023-02-14T18:45:18.491Z,98692.34
2023-02-14T18:47:46.937Z,98684.66
2023-02-14T18:50:15.490Z,98680.97
2023-02-14T18:52:43.596Z,98681.03
2023-02-14T18:55:13.698Z,98683.22
2023-02-14T18:57:41.749Z,98686.72
2023-02-14T19:00:12.384Z,98683.78
2023-02-14T19:02:42.004Z,98689.91
2023-02-14T19:05:11.557Z,98687.91
2023-02-14T19:07:39.930Z,98690.69
2023-02-14T19:10:09.369Z,98688.97
2023-02-14T19:12:37.837Z,98692.28
2023-02-14T19:15:07.027Z,98685.19
2023-02-14T19:17:36.478Z,98688.41
2023-02-14T19:20:08.755Z,98689.38
2023-02-14T19:22:40.246Z,98685.09
2023-02-14T19:25:09.044Z,98678.09
2023-02-14T19:27:37.352Z,98677.94
2023-02-14T19:30:06.616Z,98677.25
2023-02-14T19:32:35.005Z,98675.41
2023-02-14T19:35:03.078Z,98671.03
2023-02-14T19:37:33.161Z,98662.34
2023-02-14T19:40:01.651Z,98670.84
2023-02-14T19:42:29.783Z,98672.03
2023-02-14T19:44:58.200Z,98669.38
2023-02-14T19:47:39.885Z,98661.44
2023-02-14T19:50:14.571Z,98664.19
2023-02-14T19:52:44.682Z,98662.03
2023-02-14T19:55:22.516Z,98657.91
2023-02-14T19:57:50.566Z,98658.63
2023-02-14T20:00:21.143Z,98659.72
2023-02-14T20:02:49.512Z,98664.38
2023-02-14T20:05:18.830Z,98657.91
2023-02-14T20:07:52.015Z,98658.19
2023-02-14T20:10:21.405Z,98648.75
2023-02-14T20:12:49.672Z,98660.16
2023-02-14T20:15:18.088Z,98649.09
2023-02-14T20:17:46.185Z,98644.06
2023-02-14T20:20:16.093Z,98635.84
2023-02-14T20:22:44.406Z,98637.56
2023-02-14T20:25:14.102Z,98633.06
2023-02-14T20:27:42.370Z,98638.63
2023-02-14T20:30:11.591Z,98648.94
2023-02-14T20:32:39.639Z,98642.03
2023-02-14T20:35:08.608Z,98639.22
2023-02-14T20:37:36.806Z,98645.09
2023-02-14T20:40:07.084Z,98643.56
2023-02-14T20:42:38.313Z,98649.22
2023-02-14T20:45:07.101Z,98641.38
2023-02-14T20:47:35.400Z,98637.72
2023-02-14T20:50:03.911Z,98633.06
2023-02-14T20:52:31.954Z,98624.47
2023-02-14T20:55:00.197Z,98624.56
2023-02-14T20:57:29.874Z,98623.56
2023-02-14T20:59:59.503Z,98622.28
2023-02-14T21:02:27.843Z,98611.19
2023-02-14T21:05:00.237Z,98612.94
2023-02-14T21:07:30.825Z,98610.97
2023-02-14T21:09:59.089Z,98619.53
2023-02-14T21:12:27.151Z,98609.31
2023-02-14T21:14:55.210Z,98610.34
2023-02-14T21:17:24.583Z,98606.97
2023-02-14T21:19:53.164Z,98603.09
2023-02-14T21:22:21.785Z,98596.56
2023-02-14T21:24:50.199Z,98600.78
2023-02-14T21:27:18.307Z,98608.34
2023-02-14T21:29:46.204Z,98593.13
2023-02-14T21:32:14.959Z,98596.47
2023-02-14T21:34:45.008Z,98601.91
2023-02-14T21:37:13.462Z,98596.53
2023-02-14T21:39:41.775Z,98597.06
2023-02-14T21:42:11.988Z,98601.13
2023-02-14T21:44:57.800Z,98594.44
2023-02-14T21:47:26.367Z,98600.59
2023-02-14T21:50:13.161Z,98596.22
2023-02-14T21:52:41.769Z,98598.22
2023-02-14T21:55:10.538Z,98592.06
2023-02-14T21:57:38.982Z,98595.28
2023-02-14T22:00:09.676Z,98595.09
2023-02-14T22:02:40.642Z,98589.28
2023-02-14T22:05:10.098Z,98598.69
2023-02-14T22:07:38.404Z,98600.22
2023-02-14T22:10:07.564Z,98589.16
2023-02-14T22:12:35.815Z,98591.13
2023-02-14T22:15:04.441Z,98593.41
2023-02-14T22:17:34.053Z,98590.97
2023-02-14T22:20:02.486Z,98587.59
2023-02-14T22:22:34.062Z,98590.84
2023-02-14T22:25:02.654Z,98588.56
2023-02-14T22:27:31.215Z,98583.13
2023-02-14T22:29:59.372Z,98569.00
2023-02-14T22:32:27.358Z,98575.63
2023-02-14T22:34:55.877Z,98568.03
2023-02-14T22:37:23.872Z,98568.59
2023-02-14T22:39:53.254Z,98566.38
2023-02-14T22:42:21.302Z,98563.78
2023-02-14T22:44:49.295Z,98570.63
2023-02-14T22:47:17.748Z,98556.88
2023-02-14T22:49:45.932Z,98556.78
2023-02-14T22:52:13.848Z,98557.78
2023-02-14T22:54:42.077Z,98563.84
2023-02-14T22:57:11.417Z,98555.63
2023-02-14T22:59:40.230Z,98554.94
2023-02-14T23:02:09.853Z,98549.00
2023-02-14T23:04:38.305Z,98548.16
2023-02-14T23:07:06.248Z,98551.44
2023-02-14T23:09:34.510Z,98552.31
2023-02-14T23:12:02.674Z,98550.56
2023-02-14T23:14:49.504Z,98542.16
2023-02-14T23:17:34.885Z,98551.84
2023-02-14T23:20:20.889Z,98550.91
2023-02-14T23:22:49.362Z,98538.94
2023-02-14T23:25:17.683Z,98544.16
2023-02-14T23:27:47.552Z,98537.94
2023-02-14T23:30:20.435Z,98537.66
2023-02-14T23:32:48.418Z,98530.91
2023-02-14T23:35:17.480Z,98527.47
2023-02-14T23:37:45.817Z,98524.13
2023-02-14T23:40:14.179Z,98528.28
2023-02-14T23:42:42.268Z,98527.09
2023-02-14T23:45:27.866Z,98523.97
2023-02-14T23:47:57.556Z,98531.03
2023-02-14T23:50:26.090Z,98528.28
2023-02-14T23:52:54.178Z,98529.31
2023-02-14T23:55:22.569Z,98526.75
2023-02-14T23:57:50.627Z,98529.88
